Time;durP1;ratioP1;P1;durP2;ratioP2;P2;SDS_P1;SDS_P2;PMS_P1;PMS_P2;Temp;Humidity;BMP_temperature;BMP_pressure;BME280_temperature;BME280_humidity;BME280_pressure;Samples;Min_cycle;Max_cycle;Signal;HPM_P1;HPM_P2
2023/01/22 00:02:01;;;;;;;;;40.75;36.00;;;;;-146.44;100.00;58906.56;5074808;27;45532;-54
2023/01/22 00:04:26;;;;;;;;;44.50;40.00;;;;;-146.44;100.00;58906.56;5073615;27;45681;-53
2023/01/22 00:06:53;;;;;;;;;42.50;39.25;;;;;-146.44;100.00;58906.56;5075887;27;45502;-52
2023/01/22 00:09:21;;;;;;;;;35.00;35.00;;;;;-146.44;100.00;58906.56;5073638;27;45378;-53
2023/01/22 00:11:49;;;;;;;;;44.75;36.00;;;;;-146.44;100.00;58906.56;5068972;27;45618;-53
2023/01/22 00:14:15;;;;;;;;;42.75;38.00;;;;;-146.44;100.00;58906.56;5071400;27;45626;-53
2023/01/22 00:16:40;;;;;;;;;44.25;39.25;;;;;-146.44;100.00;58906.56;5073838;27;45564;-53
2023/01/22 00:19:07;;;;;;;;;43.50;38.50;;;;;-146.44;100.00;58906.56;5072326;27;45721;-53
2023/01/22 00:21:34;;;;;;;;;39.75;35.50;;;;;-146.44;100.00;58906.56;5071842;27;45642;-52
2023/01/22 00:23:59;;;;;;;;;45.50;38.50;;;;;-146.44;100.00;58906.56;5074366;28;45501;-53
2023/01/22 00:26:26;;;;;;;;;46.25;40.25;;;;;-146.44;100.00;58906.56;5074001;27;45444;-52
2023/01/22 00:28:52;;;;;;;;;46.50;40.50;;;;;-146.44;100.00;58906.56;5075462;27;45570;-55
2023/01/22 00:31:18;;;;;;;;;42.00;38.25;;;;;-146.44;100.00;58906.56;5069125;27;45786;-54
2023/01/22 00:33:45;;;;;;;;;50.75;41.00;;;;;-146.44;100.00;58906.56;5074207;27;45492;-52
2023/01/22 00:36:16;;;;;;;;;44.00;37.00;;;;;-146.44;100.00;58906.56;5056521;27;45669;-53
2023/01/22 00:38:42;;;;;;;;;44.50;39.75;;;;;-146.44;100.00;58906.56;5074303;27;45531;-55
2023/01/22 00:41:08;;;;;;;;;41.00;37.50;;;;;-146.44;100.00;58906.56;5071924;27;45520;-54
2023/01/22 00:43:37;;;;;;;;;41.25;40.00;;;;;-146.44;100.00;58906.56;5069648;27;45506;-51
2023/01/22 00:46:02;;;;;;;;;44.75;38.75;;;;;-146.44;100.00;58906.56;5072317;27;45557;-50
2023/01/22 00:48:30;;;;;;;;;46.00;39.00;;;;;-146.44;100.00;58906.56;5070290;27;45533;-53
2023/01/22 00:50:56;;;;;;;;;50.50;43.00;;;;;-146.44;100.00;58906.56;5075247;27;46169;-54
2023/01/22 00:53:22;;;;;;;;;50.25;39.50;;;;;-146.44;100.00;58906.56;5074306;27;45926;-53
2023/01/22 00:55:51;;;;;;;;;55.25;42.00;;;;;-146.44;100.00;58906.56;5062921;27;46124;-54
2023/01/22 00:58:17;;;;;;;;;49.25;42.25;;;;;-146.44;100.00;58906.56;5069824;27;45476;-51
2023/01/22 01:00:43;;;;;;;;;39.00;38.75;;;;;-146.44;100.00;58906.56;5072657;28;45430;-51
2023/01/22 01:03:26;;;;;;;;;48.00;41.25;;;;;-146.44;100.00;58906.56;5067571;27;45500;-54
2023/01/22 01:05:56;;;;;;;;;43.00;39.50;;;;;-146.44;100.00;58906.56;5072508;27;45455;-54
2023/01/22 01:08:22;;;;;;;;;51.00;42.00;;;;;-146.44;100.00;58906.56;5064621;27;45469;-54
2023/01/22 01:10:52;;;;;;;;;46.00;41.25;;;;;-146.44;100.00;58906.56;5074370;27;45429;-51
2023/01/22 01:13:17;;;;;;;;;48.25;41.25;;;;;-146.44;100.00;58906.56;5073662;27;45485;-54
2023/01/22 01:15:42;;;;;;;;;48.00;43.25;;;;;-146.44;100.00;58906.56;5074802;27;46314;-53
2023/01/22 01:18:11;;;;;;;;;47.00;39.50;;;;;-146.44;100.00;58906.56;5073891;27;45490;-52
2023/01/22 01:20:37;;;;;;;;;44.25;39.50;;;;;-146.44;100.00;58906.56;5066121;27;45497;-53
2023/01/22 01:23:02;;;;;;;;;52.00;43.00;;;;;-146.44;100.00;58906.56;5074415;27;45642;-53
2023/01/22 01:25:28;;;;;;;;;42.50;35.75;;;;;-146.44;100.00;58906.56;5068856;27;46218;-55
2023/01/22 01:27:53;;;;;;;;;41.00;40.00;;;;;-146.44;100.00;58906.56;5070475;27;48385;-54
2023/01/22 01:30:18;;;;;;;;;47.25;42.25;;;;;-146.44;100.00;58906.56;5073822;27;45446;-53
2023/01/22 01:32:44;;;;;;;;;55.50;42.50;;;;;-146.44;100.00;58906.56;5071194;27;45664;-53
2023/01/22 01:35:09;;;;;;;;;54.50;45.25;;;;;-146.44;100.00;58906.56;5062247;28;49859;-53
2023/01/22 01:37:34;;;;;;;;;56.00;47.00;;;;;-146.44;100.00;58906.56;5071545;27;45573;-54
2023/01/22 01:40:00;;;;;;;;;47.25;44.00;;;;;-146.44;100.00;58906.56;5072187;27;45677;-50
2023/01/22 01:42:30;;;;;;;;;55.00;43.00;;;;;-146.44;100.00;58906.56;5070728;27;46270;-54
2023/01/22 01:45:19;;;;;;;;;43.25;40.75;;;;;-146.44;100.00;58906.56;5074490;27;46461;-53
2023/01/22 01:47:45;;;;;;;;;51.00;42.25;;;;;-146.44;100.00;58906.56;5068278;28;45555;-53
2023/01/22 01:50:11;;;;;;;;;45.75;42.00;;;;;-146.44;100.00;58906.56;5073949;27;45701;-52
2023/01/22 01:52:37;;;;;;;;;43.50;39.00;;;;;-146.44;100.00;58906.56;5072984;27;45579;-53
2023/01/22 01:55:03;;;;;;;;;44.00;41.00;;;;;-146.44;100.00;58906.56;5065011;27;46224;-52
2023/01/22 01:57:32;;;;;;;;;50.00;43.00;;;;;-146.44;100.00;58906.56;5073351;27;45634;-54
2023/01/22 02:00:00;;;;;;;;;50.25;40.75;;;;;-146.44;100.00;58906.56;5074397;27;45437;-50
2023/01/22 02:02:25;;;;;;;;;50.00;40.25;;;;;-146.44;100.00;58906.56;5055016;27;45599;-54
2023/01/22 02:04:52;;;;;;;;;48.75;41.50;;;;;-146.44;100.00;58906.56;5060265;27;45535;-51
2023/01/22 02:07:19;;;;;;;;;49.50;41.25;;;;;-146.44;100.00;58906.56;5057203;27;45524;-54
2023/01/22 02:09:44;;;;;;;;;52.00;42.25;;;;;-146.44;100.00;58906.56;5073295;27;45485;-52
2023/01/22 02:12:10;;;;;;;;;47.25;40.50;;;;;-146.44;100.00;58906.56;5068626;28;45487;-53
2023/01/22 02:14:40;;;;;;;;;51.75;42.00;;;;;-146.44;100.00;58906.56;5071929;27;47127;-51
2023/01/22 02:17:14;;;;;;;;;35.00;30.50;;;;;-146.44;100.00;58906.56;5071871;27;45610;-53
2023/01/22 02:19:41;;;;;;;;;50.00;45.50;;;;;-146.44;100.00;58906.56;5061124;28;45533;-53
2023/01/22 02:22:31;;;;;;;;;53.50;42.50;;;;;-146.44;100.00;58906.56;5067962;27;45454;-52
2023/01/22 02:24:56;;;;;;;;;46.50;42.25;;;;;-146.44;100.00;58906.56;5064460;27;48206;-53
2023/01/22 02:27:22;;;;;;;;;43.75;39.25;;;;;-146.44;100.00;58906.56;5071380;27;45445;-53
2023/01/22 02:29:48;;;;;;;;;44.25;38.25;;;;;-146.44;100.00;58906.56;5073925;27;45578;-52
2023/01/22 02:32:14;;;;;;;;;51.25;41.25;;;;;-146.44;100.00;58906.56;5068974;27;45500;-52
2023/01/22 02:34:39;;;;;;;;;46.50;40.75;;;;;-146.44;100.00;58906.56;5072569;27;45447;-52
2023/01/22 02:37:05;;;;;;;;;48.50;42.00;;;;;-146.44;100.00;58906.56;5067669;27;45414;-52
2023/01/22 02:39:30;;;;;;;;;41.25;40.00;;;;;-146.44;100.00;58906.56;5067630;27;45572;-53
2023/01/22 02:41:57;;;;;;;;;56.75;44.25;;;;;-146.44;100.00;58906.56;5072131;27;46093;-52
2023/01/22 02:44:22;;;;;;;;;43.25;39.25;;;;;-146.44;100.00;58906.56;5073514;27;46111;-53
2023/01/22 02:46:47;;;;;;;;;42.00;39.50;;;;;-146.44;100.00;58906.56;5061251;27;45483;-50
2023/01/22 02:49:13;;;;;;;;;47.50;40.00;;;;;-146.44;100.00;58906.56;5069300;27;47073;-51
2023/01/22 02:51:38;;;;;;;;;41.75;39.75;;;;;-146.44;100.00;58906.56;5069879;27;45520;-50
2023/01/22 02:54:03;;;;;;;;;47.00;42.50;;;;;-146.44;100.00;58906.56;5064833;27;45569;-54
2023/01/22 02:56:29;;;;;;;;;54.00;42.50;;;;;-146.44;100.00;58906.56;5070971;27;45601;-53
2023/01/22 02:58:55;;;;;;;;;54.25;43.75;;;;;-146.44;100.00;58906.56;5071797;27;45548;-55
2023/01/22 03:01:24;;;;;;;;;51.00;41.75;;;;;-146.44;100.00;58906.56;5069630;28;45504;-54
2023/01/22 03:03:50;;;;;;;;;43.25;40.50;;;;;-146.44;100.00;58906.56;5064775;27;45604;-55
2023/01/22 03:06:20;;;;;;;;;46.25;40.00;;;;;-146.44;100.00;58906.56;5071145;27;45552;-51
2023/01/22 03:08:51;;;;;;;;;61.75;44.00;;;;;-146.44;100.00;58906.56;5073413;27;45526;-54
2023/01/22 03:11:17;;;;;;;;;50.75;42.25;;;;;-146.44;100.00;58906.56;5063774;27;45516;-55
2023/01/22 03:21:54;;;;;;;;;58.25;45.50;;;;;-146.44;100.00;58906.56;5075503;27;45536;-53
2023/01/22 03:24:20;;;;;;;;;48.75;41.75;;;;;-146.44;100.00;58906.56;5079682;27;45556;-54
2023/01/22 03:26:46;;;;;;;;;57.75;45.50;;;;;-146.44;100.00;58906.56;5077277;27;45484;-53
2023/01/22 03:29:11;;;;;;;;;47.00;43.50;;;;;-146.44;100.00;58906.56;5079790;27;45434;-52
2023/01/22 03:31:36;;;;;;;;;56.50;44.75;;;;;-146.44;100.00;58906.56;5077219;27;45638;-52
2023/01/22 03:34:02;;;;;;;;;52.75;45.25;;;;;-146.44;100.00;58906.56;5079404;27;46581;-54
2023/01/22 03:36:27;;;;;;;;;57.00;43.25;;;;;-146.44;100.00;58906.56;5077282;27;45477;-53
2023/01/22 03:38:52;;;;;;;;;50.25;43.25;;;;;-146.44;100.00;58906.56;5063696;27;45845;-52
2023/01/22 03:41:18;;;;;;;;;54.25;43.50;;;;;-146.44;100.00;58906.56;5079436;27;45622;-50
2023/01/22 03:43:44;;;;;;;;;50.75;42.50;;;;;-146.44;100.00;58906.56;5077860;27;45457;-53
2023/01/22 03:46:12;;;;;;;;;59.75;45.25;;;;;-146.44;100.00;58906.56;5077246;27;45490;-54
2023/01/22 03:48:38;;;;;;;;;58.00;45.25;;;;;-146.44;100.00;58906.56;5079467;27;45507;-54
2023/01/22 03:51:06;;;;;;;;;55.00;45.00;;;;;-146.44;100.00;58906.56;5065713;27;45674;-53
2023/01/22 03:53:33;;;;;;;;;58.00;45.00;;;;;-146.44;100.00;58906.56;5071811;27;45528;-53
2023/01/22 03:56:00;;;;;;;;;53.00;41.75;;;;;-146.44;100.00;58906.56;5077204;27;45476;-53
2023/01/22 03:58:26;;;;;;;;;55.00;41.75;;;;;-146.44;100.00;58906.56;5079508;27;45477;-52
2023/01/22 04:00:56;;;;;;;;;57.75;44.25;;;;;-146.44;100.00;58906.56;5078490;27;45490;-55
2023/01/22 04:03:21;;;;;;;;;58.75;46.50;;;;;-146.44;100.00;58906.56;5078717;27;47143;-52
2023/01/22 04:05:46;;;;;;;;;53.25;42.00;;;;;-146.44;100.00;58906.56;5077473;27;45609;-53
2023/01/22 04:08:12;;;;;;;;;52.75;45.25;;;;;-146.44;100.00;58906.56;5079437;27;45426;-53
2023/01/22 04:10:37;;;;;;;;;50.25;44.00;;;;;-146.44;100.00;58906.56;5070716;27;45679;-55
2023/01/22 04:13:02;;;;;;;;;42.25;39.00;;;;;-146.44;100.00;58906.56;5075712;27;46064;-52
2023/01/22 04:15:28;;;;;;;;;57.75;44.75;;;;;-146.44;100.00;58906.56;5078263;27;45464;-54
2023/01/22 04:17:53;;;;;;;;;49.50;42.75;;;;;-146.44;100.00;58906.56;5079321;27;45432;-54
2023/01/22 04:20:18;;;;;;;;;51.50;42.00;;;;;-146.44;100.00;58906.56;5071889;27;48879;-53
2023/01/22 04:22:44;;;;;;;;;48.50;39.25;;;;;-146.44;100.00;58906.56;5073695;27;45963;-53
2023/01/22 04:25:09;;;;;;;;;47.00;39.25;;;;;-146.44;100.00;58906.56;5075646;27;45548;-55
2023/01/22 04:27:36;;;;;;;;;46.50;39.25;;;;;-146.44;100.00;58906.56;5078501;27;45613;-54
2023/01/22 04:30:04;;;;;;;;;38.00;33.50;;;;;-146.44;100.00;58906.56;5077687;27;45665;-54
2023/01/22 04:32:30;;;;;;;;;46.25;37.75;;;;;-146.44;100.00;58906.56;5072743;27;45537;-55
2023/01/22 04:34:55;;;;;;;;;45.75;40.75;;;;;-146.44;100.00;58906.56;5059448;27;45772;-53
2023/01/22 04:37:20;;;;;;;;;40.50;34.50;;;;;-146.44;100.00;58906.56;5074702;27;45514;-55
2023/01/22 04:39:46;;;;;;;;;44.00;40.00;;;;;-146.44;100.00;58906.56;5075697;27;45687;-53
2023/01/22 04:42:11;;;;;;;;;48.50;40.25;;;;;-146.44;100.00;58906.56;5070332;27;46047;-54
2023/01/22 04:44:36;;;;;;;;;43.00;39.25;;;;;-146.44;100.00;58906.56;5073953;27;45504;-52
2023/01/22 04:47:01;;;;;;;;;38.75;36.00;;;;;-146.44;100.00;58906.56;5071077;27;45476;-55
2023/01/22 04:49:27;;;;;;;;;42.50;39.50;;;;;-146.44;100.00;58906.56;5063317;28;45578;-55
2023/01/22 04:51:53;;;;;;;;;47.50;39.75;;;;;-146.44;100.00;58906.56;5073550;27;45528;-55
2023/01/22 04:54:18;;;;;;;;;34.75;33.50;;;;;-146.44;100.00;58906.56;5073580;27;45481;-54
2023/01/22 04:56:44;;;;;;;;;43.25;39.25;;;;;-146.44;100.00;58906.56;5073630;27;45461;-52
2023/01/22 04:59:09;;;;;;;;;40.00;35.75;;;;;-146.44;100.00;58906.56;5070372;27;45543;-54
2023/01/22 05:01:35;;;;;;;;;45.00;39.50;;;;;-146.44;100.00;58906.56;5073769;27;46113;-55
2023/01/22 05:04:01;;;;;;;;;46.50;35.75;;;;;-146.44;100.00;58906.56;5073876;27;45555;-55
2023/01/22 05:06:26;;;;;;;;;39.50;36.00;;;;;-146.44;100.00;58906.56;5073248;27;46392;-53
2023/01/22 05:08:52;;;;;;;;;46.25;37.75;;;;;-146.44;100.00;58906.56;5074852;28;45575;-55
2023/01/22 05:11:17;;;;;;;;;39.75;34.00;;;;;-146.44;100.00;58906.56;5066468;27;45988;-53
2023/01/22 05:13:42;;;;;;;;;30.25;27.00;;;;;-146.44;100.00;58906.56;5075086;27;45411;-54
2023/01/22 05:16:07;;;;;;;;;43.50;33.75;;;;;-146.44;100.00;58906.56;5071888;27;46674;-54
2023/01/22 05:18:33;;;;;;;;;39.25;34.75;;;;;-146.44;100.00;58906.56;5065005;27;45631;-54
2023/01/22 05:20:58;;;;;;;;;44.75;34.50;;;;;-146.44;100.00;58906.56;5073658;27;46106;-53
2023/01/22 05:23:23;;;;;;;;;37.00;35.75;;;;;-146.44;100.00;58906.56;5070488;27;45525;-55
2023/01/22 05:25:49;;;;;;;;;36.50;35.00;;;;;-146.44;100.00;58906.56;5072483;27;45581;-53
2023/01/22 05:28:14;;;;;;;;;41.00;38.00;;;;;-146.44;100.00;58906.56;5074709;27;45644;-54
2023/01/22 05:30:40;;;;;;;;;30.75;29.25;;;;;-146.44;100.00;58906.56;5073847;27;46057;-53
2023/01/22 05:33:05;;;;;;;;;36.50;30.50;;;;;-146.44;100.00;58906.56;5068824;27;45599;-55
2023/01/22 05:35:30;;;;;;;;;35.75;33.75;;;;;-146.44;100.00;58906.56;5069554;27;45563;-51
2023/01/22 05:37:56;;;;;;;;;37.00;36.00;;;;;-146.44;100.00;58906.56;5074595;27;45646;-50
2023/01/22 05:40:21;;;;;;;;;36.75;34.25;;;;;-146.44;100.00;58906.56;5073143;27;49787;-53
2023/01/22 05:42:46;;;;;;;;;32.75;30.25;;;;;-146.44;100.00;58906.56;5072614;27;45428;-54
2023/01/22 05:45:12;;;;;;;;;35.00;32.25;;;;;-146.44;100.00;58906.56;5070051;27;45430;-54
2023/01/22 05:47:37;;;;;;;;;43.00;37.25;;;;;-146.44;100.00;58906.56;5073866;27;45582;-54
2023/01/22 05:50:03;;;;;;;;;40.00;30.75;;;;;-146.44;100.00;58906.56;5074555;27;45429;-55
2023/01/22 05:52:28;;;;;;;;;39.50;33.75;;;;;-146.44;100.00;58906.56;5066165;27;45905;-52
2023/01/22 05:54:53;;;;;;;;;34.75;31.25;;;;;-146.44;100.00;58906.56;5072062;27;45523;-53
2023/01/22 05:57:19;;;;;;;;;36.25;33.75;;;;;-146.44;100.00;58906.56;5069965;27;45445;-53
2023/01/22 05:59:44;;;;;;;;;37.50;35.00;;;;;-146.44;100.00;58906.56;5074150;27;45484;-54
2023/01/22 06:02:09;;;;;;;;;38.75;37.75;;;;;-146.44;100.00;58906.56;5071049;27;45436;-54
2023/01/22 06:04:35;;;;;;;;;34.25;31.50;;;;;-146.44;100.00;58906.56;5073329;27;45437;-54
2023/01/22 06:07:00;;;;;;;;;36.00;28.50;;;;;-146.44;100.00;58906.56;5072544;27;45351;-55
2023/01/22 06:09:25;;;;;;;;;41.75;33.75;;;;;-146.44;100.00;58906.56;5071185;27;45445;-53
2023/01/22 06:11:51;;;;;;;;;32.50;32.50;;;;;-146.44;100.00;58906.56;5066045;27;45577;-52
2023/01/22 06:14:16;;;;;;;;;31.50;28.75;;;;;-146.44;100.00;58906.56;5074034;27;45512;-52
2023/01/22 06:16:42;;;;;;;;;35.50;34.00;;;;;-146.44;100.00;58906.56;5073108;27;45671;-54
2023/01/22 06:19:07;;;;;;;;;30.50;28.50;;;;;-146.44;100.00;58906.56;5071986;27;46273;-52
2023/01/22 06:21:33;;;;;;;;;36.75;31.50;;;;;-146.44;100.00;58906.56;5072568;27;45635;-51
2023/01/22 06:23:58;;;;;;;;;34.25;30.75;;;;;-146.44;100.00;58906.56;5071166;27;45480;-53
2023/01/22 06:26:23;;;;;;;;;36.00;33.75;;;;;-146.44;100.00;58906.56;5072462;27;48048;-54
2023/01/22 06:28:48;;;;;;;;;41.25;38.00;;;;;-146.44;100.00;58906.56;5070729;27;46021;-53
2023/01/22 06:31:14;;;;;;;;;36.75;29.50;;;;;-146.44;100.00;58906.56;5064862;27;45520;-51
2023/01/22 06:33:40;;;;;;;;;37.50;34.00;;;;;-146.44;100.00;58906.56;5073509;27;45484;-53
2023/01/22 06:36:06;;;;;;;;;39.25;36.75;;;;;-146.44;100.00;58906.56;5069282;27;45452;-53
2023/01/22 06:38:31;;;;;;;;;38.00;34.75;;;;;-146.44;100.00;58906.56;5072101;27;46120;-53
2023/01/22 06:40:59;;;;;;;;;39.25;33.75;;;;;-146.44;100.00;58906.56;5068949;27;45679;-54
2023/01/22 06:43:26;;;;;;;;;44.00;35.50;;;;;-146.44;100.00;58906.56;5069039;27;45569;-54
2023/01/22 06:45:51;;;;;;;;;37.75;36.50;;;;;-146.44;100.00;58906.56;5068742;27;45512;-53
2023/01/22 06:48:17;;;;;;;;;39.00;35.50;;;;;-146.44;100.00;58906.56;5066112;27;45552;-55
2023/01/22 06:50:43;;;;;;;;;33.00;30.25;;;;;-146.44;100.00;58906.56;5062713;27;45467;-54
2023/01/22 06:53:08;;;;;;;;;46.75;40.75;;;;;-146.44;100.00;58906.56;5068587;27;45563;-54
2023/01/22 06:55:33;;;;;;;;;39.75;36.50;;;;;-146.44;100.00;58906.56;5067249;28;45621;-54
2023/01/22 06:57:59;;;;;;;;;41.75;35.25;;;;;-146.44;100.00;58906.56;5073241;27;46116;-50
2023/01/22 07:00:24;;;;;;;;;31.00;30.50;;;;;-146.44;100.00;58906.56;5070891;27;45532;-55
2023/01/22 07:02:50;;;;;;;;;36.75;33.75;;;;;-146.44;100.00;58906.56;5073483;27;45494;-56
2023/01/22 07:05:18;;;;;;;;;36.25;32.25;;;;;-146.44;100.00;58906.56;5068310;27;45508;-53
2023/01/22 07:07:43;;;;;;;;;43.25;38.25;;;;;-146.44;100.00;58906.56;5070022;27;45508;-56
2023/01/22 07:10:09;;;;;;;;;43.00;35.50;;;;;-146.44;100.00;58906.56;5061893;27;45881;-53
2023/01/22 07:12:35;;;;;;;;;34.50;30.75;;;;;-146.44;100.00;58906.56;5071518;28;45493;-55
2023/01/22 07:15:01;;;;;;;;;42.25;35.75;;;;;-146.44;100.00;58906.56;5065707;27;45592;-52
2023/01/22 07:17:26;;;;;;;;;41.00;39.25;;;;;-146.44;100.00;58906.56;5063418;27;46050;-52
2023/01/22 07:19:52;;;;;;;;;39.00;33.00;;;;;-146.44;100.00;58906.56;5070779;27;45785;-54
2023/01/22 07:22:17;;;;;;;;;36.00;29.00;;;;;-146.44;100.00;58906.56;5070025;27;45481;-54
2023/01/22 07:24:42;;;;;;;;;47.50;39.25;;;;;-146.44;100.00;58906.56;5069557;27;45608;-54
2023/01/22 07:27:08;;;;;;;;;40.25;33.25;;;;;-146.44;100.00;58906.56;5061489;28;45536;-53
2023/01/22 07:29:33;;;;;;;;;37.75;34.00;;;;;-146.44;100.00;58906.56;5072227;27;45606;-54
2023/01/22 07:31:59;;;;;;;;;42.50;39.25;;;;;-146.44;100.00;58906.56;5066941;27;45441;-55
2023/01/22 07:34:24;;;;;;;;;33.25;32.50;;;;;-146.44;100.00;58906.56;5070710;27;45501;-53
2023/01/22 07:36:49;;;;;;;;;33.00;29.00;;;;;-146.44;100.00;58906.56;5070454;27;46818;-55
2023/01/22 07:39:15;;;;;;;;;40.50;32.25;;;;;-146.44;100.00;58906.56;5072586;27;45490;-54
2023/01/22 07:41:40;;;;;;;;;42.50;34.75;;;;;-146.44;100.00;58906.56;5070361;27;45525;-54
2023/01/22 07:44:07;;;;;;;;;36.25;34.25;;;;;-146.44;100.00;58906.56;5055851;27;45605;-54
2023/01/22 07:46:34;;;;;;;;;41.00;34.25;;;;;-146.44;100.00;58906.56;5064631;27;45700;-53
2023/01/22 07:48:59;;;;;;;;;38.50;34.00;;;;;-146.44;100.00;58906.56;5071806;27;45488;-54
2023/01/22 07:51:24;;;;;;;;;49.00;37.00;;;;;-146.44;100.00;58906.56;5072159;27;45537;-55
2023/01/22 07:53:50;;;;;;;;;35.00;32.50;;;;;-146.44;100.00;58906.56;5068396;27;45614;-53
2023/01/22 07:56:17;;;;;;;;;37.25;29.25;;;;;-146.44;100.00;58906.56;5072456;27;45482;-55
2023/01/22 07:58:43;;;;;;;;;28.75;27.00;;;;;-146.44;100.00;58906.56;5067747;27;45487;-52
2023/01/22 08:01:09;;;;;;;;;37.00;34.25;;;;;-146.44;100.00;58906.56;5065826;27;45602;-52
2023/01/22 08:03:36;;;;;;;;;40.25;31.00;;;;;-146.44;100.00;58906.56;5068642;27;45541;-54
2023/01/22 08:06:07;;;;;;;;;41.50;32.75;;;;;-146.44;100.00;58906.56;5071131;27;46221;-54
2023/01/22 08:08:32;;;;;;;;;33.50;33.50;;;;;-146.44;100.00;58906.56;5076085;27;45539;-52
2023/01/22 08:10:58;;;;;;;;;36.25;32.75;;;;;-146.44;100.00;58906.56;5069418;27;45506;-55
2023/01/22 08:13:23;;;;;;;;;32.75;32.75;;;;;-146.44;100.00;58906.56;5074746;27;45643;-54
2023/01/22 08:15:48;;;;;;;;;33.75;27.50;;;;;-146.44;100.00;58906.56;5070345;27;46549;-54
2023/01/22 08:18:15;;;;;;;;;36.00;32.00;;;;;-146.44;100.00;58906.56;5072727;27;45416;-55
2023/01/22 08:20:41;;;;;;;;;36.00;32.00;;;;;-146.44;100.00;58906.56;5074228;27;45509;-55
2023/01/22 08:23:07;;;;;;;;;36.00;31.25;;;;;-146.44;100.00;58906.56;5075028;27;45481;-56
2023/01/22 08:25:32;;;;;;;;;31.75;29.25;;;;;-146.44;100.00;58906.56;5074266;27;46204;-55
2023/01/22 08:28:01;;;;;;;;;38.75;37.00;;;;;-146.44;100.00;58906.56;5067367;27;45480;-53
2023/01/22 08:30:27;;;;;;;;;39.25;29.25;;;;;-146.44;100.00;58906.56;5072687;27;45477;-53
2023/01/22 08:32:53;;;;;;;;;38.25;32.50;;;;;-146.44;100.00;58906.56;5071504;27;45571;-53
2023/01/22 08:35:21;;;;;;;;;35.50;30.50;;;;;-146.44;100.00;58906.56;5074405;27;45583;-55
2023/01/22 08:37:46;;;;;;;;;34.75;34.25;;;;;-146.44;100.00;58906.56;5071265;27;45481;-54
2023/01/22 08:40:12;;;;;;;;;38.50;35.75;;;;;-146.44;100.00;58906.56;5069248;27;45415;-53
2023/01/22 08:42:38;;;;;;;;;34.25;32.25;;;;;-146.44;100.00;58906.56;5069888;27;45533;-56
2023/01/22 08:45:04;;;;;;;;;35.00;33.25;;;;;-146.44;100.00;58906.56;5072976;27;46148;-52
2023/01/22 08:47:30;;;;;;;;;30.50;28.25;;;;;-146.44;100.00;58906.56;5075287;27;45401;-54
2023/01/22 08:49:56;;;;;;;;;37.50;33.75;;;;;-146.44;100.00;58906.56;5073370;27;46106;-55
2023/01/22 08:52:22;;;;;;;;;40.25;32.25;;;;;-146.44;100.00;58906.56;5072562;27;45508;-55
2023/01/22 08:54:47;;;;;;;;;25.75;24.75;;;;;-146.44;100.00;58906.56;5064120;27;46380;-54
2023/01/22 08:57:13;;;;;;;;;35.25;30.50;;;;;-146.44;100.00;58906.56;5075197;27;45415;-55
2023/01/22 08:59:38;;;;;;;;;34.25;30.25;;;;;-146.44;100.00;58906.56;5073412;28;45413;-52
2023/01/22 09:02:03;;;;;;;;;36.00;30.75;;;;;-146.44;100.00;58906.56;5067821;27;45568;-55
2023/01/22 09:04:29;;;;;;;;;29.75;28.25;;;;;-146.44;100.00;58906.56;5072787;27;46414;-58
2023/01/22 09:06:54;;;;;;;;;26.25;26.00;;;;;-146.44;100.00;58906.56;5073837;27;45518;-57
2023/01/22 09:09:21;;;;;;;;;33.25;30.50;;;;;-146.44;100.00;58906.56;5074981;27;45453;-58
2023/01/22 09:11:46;;;;;;;;;35.25;33.50;;;;;-146.44;100.00;58906.56;5060951;28;45725;-60
2023/01/22 09:14:12;;;;;;;;;37.25;34.50;;;;;-146.44;100.00;58906.56;5075837;27;45480;-57
2023/01/22 09:16:38;;;;;;;;;31.75;30.75;;;;;-146.44;100.00;58906.56;5073831;27;45603;-52
2023/01/22 09:19:04;;;;;;;;;34.50;29.25;;;;;-146.44;100.00;58906.56;5073085;27;45426;-58
2023/01/22 09:21:32;;;;;;;;;29.50;26.50;;;;;-146.44;100.00;58906.56;5074393;27;45457;-56
2023/01/22 09:23:57;;;;;;;;;33.75;30.50;;;;;-146.44;100.00;58906.56;5072862;27;47106;-57
2023/01/22 09:26:22;;;;;;;;;41.00;32.75;;;;;-146.44;100.00;58906.56;5075426;27;45559;-58
2023/01/22 09:28:48;;;;;;;;;35.25;33.00;;;;;-146.44;100.00;58906.56;5075231;27;45430;-57
2023/01/22 09:31:14;;;;;;;;;35.00;30.75;;;;;-146.44;100.00;58906.56;5071421;27;45520;-58
2023/01/22 09:33:39;;;;;;;;;32.25;30.00;;;;;-146.44;100.00;58906.56;5071441;27;46307;-58
2023/01/22 09:36:06;;;;;;;;;28.00;25.75;;;;;-146.44;100.00;58906.56;5075360;27;45488;-56
2023/01/22 09:38:32;;;;;;;;;35.75;29.25;;;;;-146.44;100.00;58906.56;5070724;27;45570;-57
2023/01/22 09:41:01;;;;;;;;;33.50;27.50;;;;;-146.44;100.00;58906.56;5063525;28;45593;-56
2023/01/22 09:43:50;;;;;;;;;27.00;23.50;;;;;-146.44;100.00;58906.56;5071611;27;46012;-56
2023/01/22 09:46:22;;;;;;;;;35.50;33.50;;;;;-146.44;100.00;58906.56;5075167;27;45429;-58
2023/01/22 09:48:52;;;;;;;;;34.00;30.25;;;;;-146.44;100.00;58906.56;5069371;27;45797;-56
2023/01/22 09:51:18;;;;;;;;;34.25;30.00;;;;;-146.44;100.00;58906.56;5074044;27;45842;-54
2023/01/22 09:53:51;;;;;;;;;41.00;32.25;;;;;-146.44;100.00;58906.56;5073825;27;45973;-54
2023/01/22 09:56:20;;;;;;;;;32.75;30.50;;;;;-146.44;100.00;58906.56;5070359;27;45505;-53
2023/01/22 09:58:50;;;;;;;;;38.25;31.25;;;;;-146.44;100.00;58906.56;5061068;27;45602;-55
2023/01/22 10:01:18;;;;;;;;;31.75;25.00;;;;;-146.44;100.00;58906.56;5072433;27;45567;-57
2023/01/22 10:03:48;;;;;;;;;33.25;26.50;;;;;-146.44;100.00;58906.56;5074366;27;45524;-54
2023/01/22 10:06:20;;;;;;;;;36.00;30.00;;;;;-146.44;100.00;58906.56;5071797;27;45571;-52
2023/01/22 10:09:06;;;;;;;;;32.50;31.50;;;;;-146.44;100.00;58906.56;5074786;27;45512;-55
2023/01/22 10:11:32;;;;;;;;;32.75;28.00;;;;;-146.44;100.00;58906.56;5063843;27;45500;-54
2023/01/22 10:14:00;;;;;;;;;39.00;36.25;;;;;-146.44;100.00;58906.56;5074777;27;45469;-57
2023/01/22 10:16:25;;;;;;;;;27.50;26.25;;;;;-146.44;100.00;58906.56;5073635;27;45412;-55
2023/01/22 10:19:18;;;;;;;;;43.50;30.50;;;;;-146.44;100.00;58906.56;5071979;27;45536;-57
2023/01/22 10:21:53;;;;;;;;;30.00;29.00;;;;;-146.44;100.00;58906.56;5075693;27;45492;-56
2023/01/22 10:24:18;;;;;;;;;28.00;23.50;;;;;-146.44;100.00;58906.56;5067569;27;46240;-58
2023/01/22 10:26:51;;;;;;;;;32.25;31.00;;;;;-146.44;100.00;58906.56;5073523;27;45510;-59
2023/01/22 10:29:28;;;;;;;;;38.25;31.00;;;;;-146.44;100.00;58906.56;5072140;27;45624;-56
2023/01/22 10:32:04;;;;;;;;;28.75;26.00;;;;;-146.44;100.00;58906.56;5072098;27;46086;-55
2023/01/22 10:34:35;;;;;;;;;31.75;26.00;;;;;-146.44;100.00;58906.56;5074252;27;45552;-60
2023/01/22 10:37:18;;;;;;;;;45.25;36.00;;;;;-146.44;100.00;58906.56;5070790;27;45705;-60
2023/01/22 10:39:46;;;;;;;;;34.25;28.75;;;;;-146.44;100.00;58906.56;5070031;27;45618;-58
2023/01/22 10:42:16;;;;;;;;;31.75;27.75;;;;;-146.44;100.00;58906.56;5069744;27;45485;-55
2023/01/22 10:44:42;;;;;;;;;31.00;27.75;;;;;-146.44;100.00;58906.56;5071259;27;46159;-57
2023/01/22 10:47:17;;;;;;;;;34.00;33.75;;;;;-146.44;100.00;58906.56;5071847;27;45505;-58
2023/01/22 10:49:44;;;;;;;;;35.50;28.75;;;;;-146.44;100.00;58906.56;5067881;27;45495;-57
2023/01/22 10:52:31;;;;;;;;;29.00;26.00;;;;;-146.44;100.00;58906.56;5073948;27;45694;-57
2023/01/22 10:54:58;;;;;;;;;31.75;26.25;;;;;-146.44;100.00;58906.56;5071401;27;46094;-57
2023/01/22 10:57:32;;;;;;;;;30.50;28.50;;;;;-146.44;100.00;58906.56;5073281;27;45484;-59
2023/01/22 11:00:09;;;;;;;;;35.75;30.75;;;;;-146.44;100.00;58906.56;5072951;28;45564;-54
2023/01/22 11:02:35;;;;;;;;;28.25;25.25;;;;;-146.44;100.00;58906.56;5073350;27;45473;-55